createdAt,value
2018-12-09T00:00:41.258Z,96.56
2018-12-09T00:03:12.994Z,96.45
2018-12-09T00:05:44.605Z,95.83
2018-12-09T00:08:16.289Z,96.09
2018-12-09T00:10:45.977Z,96.14
2018-12-09T00:13:15.778Z,95.07
2018-12-09T00:15:45.414Z,94.63
2018-12-09T00:18:15.068Z,94.24
2018-12-09T00:20:45.074Z,94.03
2018-12-09T00:23:14.737Z,94.02
2018-12-09T00:25:44.587Z,91.94
2018-12-09T00:28:14.262Z,92.71
2018-12-09T00:30:43.930Z,92.47
2018-12-09T00:33:13.613Z,93.25
2018-12-09T00:35:43.446Z,95.40
2018-12-09T00:38:13.130Z,95.71
2018-12-09T00:40:42.954Z,94.79
2018-12-09T00:43:12.650Z,94.74
2018-12-09T00:45:42.457Z,94.44
2018-12-09T00:48:12.122Z,94.33
2018-12-09T00:50:41.887Z,93.56
2018-12-09T00:53:11.565Z,94.79
2018-12-09T00:55:41.334Z,94.53
2018-12-09T00:58:11.074Z,94.96
2018-12-09T01:00:40.837Z,96.06
2018-12-09T01:03:10.617Z,94.36
2018-12-09T01:05:40.477Z,94.75
2018-12-09T01:08:10.277Z,93.38
2018-12-09T01:10:39.956Z,92.69
2018-12-09T01:13:09.643Z,93.45
2018-12-09T01:15:39.386Z,92.77
2018-12-09T01:18:09.063Z,93.04
2018-12-09T01:20:38.909Z,91.18
2018-12-09T01:23:08.589Z,92.12
2018-12-09T01:25:38.262Z,91.96
2018-12-09T01:28:07.997Z,91.95
2018-12-09T01:30:37.750Z,91.46
2018-12-09T01:33:07.477Z,92.25
2018-12-09T01:35:37.351Z,90.07
2018-12-09T01:38:07.090Z,89.72
2018-12-09T01:40:42.146Z,89.08
2018-12-09T01:43:12.207Z,89.63
2018-12-09T01:45:42.035Z,89.42
2018-12-09T01:48:11.833Z,88.36
2018-12-09T01:50:41.571Z,89.64
2018-12-09T01:54:18.282Z,89.75
2018-12-09T01:56:48.180Z,90.19
2018-12-09T01:59:17.880Z,90.81
2018-12-09T02:01:47.617Z,91.48
2018-12-09T02:04:17.501Z,92.37
2018-12-09T02:06:47.304Z,92.75
2018-12-09T02:09:17.093Z,94.12
2018-12-09T02:11:47.054Z,95.00
2018-12-09T02:14:16.701Z,95.23
2018-12-09T02:16:46.453Z,96.25
2018-12-09T02:19:21.673Z,96.31
2018-12-09T02:21:51.808Z,97.46
2018-12-09T02:24:21.929Z,96.44
2018-12-09T02:26:51.720Z,97.54
2018-12-09T02:29:21.418Z,97.27
2018-12-09T02:31:51.154Z,95.94
2018-12-09T02:34:21.157Z,96.49
2018-12-09T02:36:50.874Z,95.65
2018-12-09T02:39:20.585Z,94.78
2018-12-09T02:41:50.296Z,94.66
2018-12-09T02:44:20.022Z,94.61
2018-12-09T02:46:49.713Z,93.82
2018-12-09T02:49:19.417Z,93.20
2018-12-09T02:51:49.097Z,93.65
2018-12-09T02:54:18.896Z,93.25
2018-12-09T02:56:48.597Z,92.72
2018-12-09T02:59:18.303Z,90.94
2018-12-09T03:01:48.250Z,90.02
2018-12-09T03:04:17.971Z,89.63
2018-12-09T03:06:47.678Z,91.55
2018-12-09T03:09:17.427Z,90.29
2018-12-09T03:11:47.155Z,89.33
2018-12-09T03:14:16.998Z,89.68
2018-12-09T03:16:46.702Z,88.66
2018-12-09T03:19:16.508Z,88.90
2018-12-09T03:21:46.201Z,88.38
2018-12-09T03:24:15.973Z,87.21
2018-12-09T03:26:45.961Z,87.09
2018-12-09T03:29:16.552Z,86.58
2018-12-09T03:31:46.357Z,87.04
2018-12-09T03:34:16.152Z,88.63
2018-12-09T03:36:46.276Z,87.91
2018-12-09T03:39:15.988Z,86.64
2018-12-09T03:41:45.766Z,86.91
2018-12-09T03:44:15.601Z,88.18
2018-12-09T03:46:45.441Z,87.00
2018-12-09T03:49:15.160Z,86.17
2018-12-09T03:51:44.866Z,87.26
2018-12-09T03:54:14.592Z,87.32
2018-12-09T03:56:44.245Z,85.70
2018-12-09T03:59:14.170Z,83.78
2018-12-09T04:01:44.073Z,86.47
2018-12-09T04:04:13.864Z,83.75
2018-12-09T04:06:43.707Z,84.63
2018-12-09T04:09:13.757Z,85.16
2018-12-09T04:11:43.510Z,83.56
2018-12-09T04:14:13.263Z,84.99
2018-12-09T04:16:43.053Z,85.19
2018-12-09T04:19:12.821Z,84.48
2018-12-09T04:21:42.529Z,85.15
2018-12-09T04:24:12.240Z,84.25
2018-12-09T04:26:42.041Z,83.49
2018-12-09T04:29:11.769Z,82.57
2018-12-09T04:31:41.474Z,82.43
2018-12-09T04:34:11.130Z,80.86
2018-12-09T04:36:41.765Z,80.37
2018-12-09T04:39:11.569Z,81.10
2018-12-09T04:41:41.577Z,80.80
2018-12-09T04:44:11.284Z,81.79
2018-12-09T04:46:41.066Z,82.03
2018-12-09T04:49:11.709Z,83.39
2018-12-09T04:51:54.218Z,83.83
2018-12-09T04:54:25.183Z,84.40
2018-12-09T04:56:55.137Z,85.22
2018-12-09T04:59:25.920Z,86.35
2018-12-09T05:01:55.634Z,85.19
2018-12-09T05:04:25.296Z,87.42
2018-12-09T05:06:55.034Z,86.54
2018-12-09T05:09:24.802Z,86.30
2018-12-09T05:11:54.507Z,88.28
2018-12-09T05:14:24.309Z,86.99
2018-12-09T05:16:54.021Z,85.92
2018-12-09T05:19:23.728Z,86.57
2018-12-09T05:21:53.816Z,85.91
2018-12-09T05:24:24.466Z,85.56
2018-12-09T05:26:54.245Z,85.01
2018-12-09T05:29:23.957Z,86.06
2018-12-09T05:31:53.602Z,85.95
2018-12-09T05:34:23.310Z,86.68
2018-12-09T05:36:53.052Z,87.05
2018-12-09T05:39:22.761Z,87.59
2018-12-09T05:41:52.453Z,86.64
2018-12-09T05:44:23.800Z,86.84
2018-12-09T05:46:53.499Z,86.84
2018-12-09T05:49:23.241Z,85.07
2018-12-09T05:51:52.953Z,85.51
2018-12-09T05:54:22.661Z,86.19
2018-12-09T05:56:52.299Z,85.82
2018-12-09T05:59:22.104Z,85.09
2018-12-09T06:01:51.813Z,85.21
2018-12-09T06:04:21.517Z,84.07
2018-12-09T06:06:51.222Z,84.49
2018-12-09T06:09:20.924Z,83.89
2018-12-09T06:11:50.634Z,84.55
2018-12-09T06:14:20.284Z,83.88
2018-12-09T06:16:50.281Z,83.00
2018-12-09T06:19:19.994Z,83.53
2018-12-09T06:21:49.842Z,83.37
2018-12-09T06:24:19.532Z,83.56
2018-12-09T06:26:49.413Z,83.05
2018-12-09T06:29:19.201Z,81.52
2018-12-09T06:31:48.893Z,81.17
2018-12-09T06:34:18.601Z,82.60
2018-12-09T06:36:48.429Z,81.42
2018-12-09T06:39:18.081Z,81.97
2018-12-09T06:41:47.816Z,82.30
2018-12-09T06:44:17.648Z,80.91
2018-12-09T06:46:47.399Z,81.52
2018-12-09T06:49:17.113Z,82.70
2018-12-09T06:51:46.818Z,81.82
2018-12-09T06:54:16.625Z,83.18
2018-12-09T06:56:46.272Z,81.41
2018-12-09T06:59:16.128Z,81.43
2018-12-09T07:01:46.020Z,82.24
2018-12-09T07:04:15.728Z,82.05
2018-12-09T07:06:45.429Z,81.52
2018-12-09T07:09:16.213Z,81.08
2018-12-09T07:11:45.990Z,80.19
2018-12-09T07:14:15.690Z,80.48
2018-12-09T07:16:45.508Z,79.87
2018-12-09T07:19:15.364Z,79.93
2018-12-09T07:21:45.066Z,79.82
2018-12-09T07:24:15.081Z,79.48
2018-12-09T07:26:44.787Z,79.23
2018-12-09T07:29:14.597Z,80.23
2018-12-09T07:31:44.297Z,79.72
2018-12-09T07:34:14.010Z,78.38
2018-12-09T07:36:43.723Z,78.43
2018-12-09T07:39:13.372Z,78.65
2018-12-09T07:41:43.073Z,78.36
2018-12-09T07:44:12.788Z,77.36
2018-12-09T07:46:42.797Z,76.50
2018-12-09T07:49:12.532Z,76.51
2018-12-09T07:51:42.252Z,77.62
2018-12-09T07:54:12.014Z,78.04
2018-12-09T07:56:41.745Z,77.15
2018-12-09T07:59:11.789Z,78.21
2018-12-09T08:01:41.454Z,79.39
2018-12-09T08:04:11.279Z,78.43
2018-12-09T08:06:40.962Z,78.66
2018-12-09T08:09:10.603Z,78.54
2018-12-09T08:11:40.426Z,79.09
2018-12-09T08:14:10.189Z,78.64
2018-12-09T08:16:39.899Z,79.63
2018-12-09T08:19:09.901Z,78.24
2018-12-09T08:21:39.651Z,78.12
2018-12-09T08:24:09.344Z,80.00
2018-12-09T08:26:39.041Z,79.20
2018-12-09T08:29:08.716Z,80.09
2018-12-09T08:31:38.380Z,80.86
2018-12-09T08:34:08.287Z,81.38
2018-12-09T08:36:38.116Z,81.32
2018-12-09T08:39:07.760Z,81.50
2018-12-09T08:41:37.560Z,81.09
2018-12-09T08:44:07.341Z,81.41
2018-12-09T08:46:37.053Z,81.53
2018-12-09T08:49:06.728Z,80.36
2018-12-09T08:51:36.392Z,82.71
2018-12-09T08:54:06.233Z,82.74
2018-12-09T08:56:36.104Z,81.32
2018-12-09T08:59:05.870Z,81.85
2018-12-09T09:01:35.645Z,80.83
2018-12-09T09:04:05.296Z,80.33
2018-12-09T09:06:34.960Z,79.86
2018-12-09T09:09:05.856Z,79.79
2018-12-09T09:11:36.944Z,81.22
2018-12-09T09:14:06.731Z,79.81
2018-12-09T09:16:36.648Z,80.34
2018-12-09T09:19:06.557Z,79.89
2018-12-09T09:21:36.245Z,78.96
2018-12-09T09:24:06.025Z,79.42
2018-12-09T09:26:35.904Z,79.95
2018-12-09T09:29:05.617Z,78.17
2018-12-09T09:31:35.273Z,77.15
2018-12-09T09:34:04.976Z,77.92
2018-12-09T09:36:34.727Z,78.34
2018-12-09T09:39:05.581Z,77.62
2018-12-09T09:41:35.938Z,77.14
2018-12-09T09:44:05.688Z,77.14
2018-12-09T09:46:35.336Z,77.20
2018-12-09T09:49:05.072Z,77.02
2018-12-09T09:51:34.853Z,77.17
2018-12-09T09:54:04.646Z,77.79
2018-12-09T09:56:34.421Z,78.03
2018-12-09T09:59:04.280Z,78.70
2018-12-09T10:01:34.143Z,78.83
2018-12-09T10:04:03.812Z,78.50
2018-12-09T10:06:33.536Z,78.53
2018-12-09T10:09:05.329Z,78.13
2018-12-09T10:11:36.125Z,78.96
2018-12-09T10:14:05.837Z,79.26
2018-12-09T10:16:35.557Z,78.53
2018-12-09T10:19:05.212Z,77.76
2018-12-09T10:21:34.868Z,78.61
2018-12-09T10:24:04.538Z,79.68
2018-12-09T10:26:36.513Z,79.50
2018-12-09T10:29:05.824Z,79.69
2018-12-09T10:31:35.476Z,78.94
2018-12-09T10:34:05.136Z,79.24
2018-12-09T10:36:34.889Z,78.76
2018-12-09T10:39:06.676Z,78.29
2018-12-09T10:41:36.345Z,78.25
2018-12-09T10:44:05.992Z,78.53
2018-12-09T10:46:35.704Z,78.35
2018-12-09T10:49:05.406Z,79.29
2018-12-09T10:51:35.086Z,78.75
2018-12-09T10:54:05.788Z,78.36
2018-12-09T10:56:35.482Z,78.05
2018-12-09T10:59:05.147Z,78.25
2018-12-09T11:01:39.331Z,77.72
2018-12-09T11:04:09.165Z,78.03
2018-12-09T11:06:38.833Z,76.89
2018-12-09T11:09:08.597Z,75.97
2018-12-09T11:11:38.274Z,76.36
2018-12-09T11:14:07.928Z,76.52
2018-12-09T11:16:37.808Z,77.04
2018-12-09T11:19:07.641Z,76.80
2018-12-09T11:21:37.486Z,76.83
2018-12-09T11:24:07.269Z,76.95
2018-12-09T11:26:36.940Z,77.16
2018-12-09T11:29:06.902Z,76.06
2018-12-09T11:31:36.828Z,77.03
2018-12-09T11:34:06.746Z,76.94
2018-12-09T11:36:36.436Z,76.55
2018-12-09T11:39:06.926Z,76.70
2018-12-09T11:41:37.684Z,76.95
2018-12-09T11:44:07.436Z,77.53
2018-12-09T11:46:37.229Z,77.03
2018-12-09T11:49:06.985Z,78.30
2018-12-09T11:51:36.920Z,78.21
2018-12-09T11:54:06.764Z,80.51
2018-12-09T11:56:37.586Z,80.44
2018-12-09T11:59:07.408Z,81.51
2018-12-09T12:01:37.080Z,80.78
2018-12-09T12:04:06.736Z,79.84
2018-12-09T12:06:36.776Z,79.40
2018-12-09T12:09:06.759Z,79.16
2018-12-09T12:11:38.405Z,78.42
2018-12-09T12:14:08.101Z,78.31
2018-12-09T12:16:37.861Z,78.05
2018-12-09T12:19:07.583Z,78.97
2018-12-09T12:21:37.249Z,77.48
2018-12-09T12:24:07.012Z,77.43
2018-12-09T12:26:36.677Z,77.48
2018-12-09T12:29:06.427Z,75.96
2018-12-09T12:31:36.131Z,77.52
2018-12-09T12:34:05.776Z,77.16
2018-12-09T12:36:35.634Z,76.19
2018-12-09T12:39:06.970Z,77.71
2018-12-09T12:41:36.968Z,76.45
2018-12-09T12:44:06.732Z,76.36
2018-12-09T12:46:37.056Z,76.21
2018-12-09T12:49:06.864Z,76.20
2018-12-09T12:51:36.661Z,77.52
2018-12-09T12:54:06.377Z,76.71
2018-12-09T12:56:36.310Z,76.69
2018-12-09T12:59:06.121Z,76.53
2018-12-09T13:01:36.303Z,76.87
2018-12-09T13:04:06.317Z,75.56
2018-12-09T13:06:36.156Z,75.76
2018-12-09T13:09:07.816Z,76.14
2018-12-09T13:11:39.408Z,76.41
2018-12-09T13:14:09.075Z,75.56
2018-12-09T13:16:38.774Z,77.29
2018-12-09T13:19:08.665Z,75.32
2018-12-09T13:21:38.403Z,75.36
2018-12-09T13:24:08.131Z,76.90
2018-12-09T13:26:37.891Z,72.99
2018-12-09T13:29:07.683Z,74.93
2018-12-09T13:31:37.672Z,74.35
2018-12-09T13:34:07.483Z,74.78
2018-12-09T13:36:37.242Z,74.88
2018-12-09T13:39:07.620Z,75.59
2018-12-09T13:41:37.460Z,74.12
2018-12-09T13:44:07.134Z,74.36
2018-12-09T13:46:36.845Z,74.44
2018-12-09T13:49:06.686Z,74.44
2018-12-09T13:51:36.388Z,75.44
2018-12-09T13:54:06.157Z,74.27
2018-12-09T13:56:36.025Z,75.12
2018-12-09T13:59:05.817Z,74.70
2018-12-09T14:01:35.517Z,75.21
2018-12-09T14:04:05.254Z,74.64
2018-12-09T14:06:35.065Z,74.33
2018-12-09T14:09:07.237Z,75.47
2018-12-09T14:11:38.361Z,76.04
2018-12-09T14:14:08.076Z,74.80
2018-12-09T14:16:37.741Z,74.78
2018-12-09T14:19:07.441Z,75.14
2018-12-09T14:21:37.156Z,75.47
2018-12-09T14:24:06.916Z,75.56
2018-12-09T14:26:43.097Z,76.71
2018-12-09T14:29:12.942Z,76.73
2018-12-09T14:31:43.067Z,77.03
2018-12-09T14:34:12.839Z,77.92
2018-12-09T14:36:42.689Z,78.14
2018-12-09T14:39:12.504Z,78.41
2018-12-09T14:41:42.269Z,78.32
2018-12-09T14:44:12.018Z,78.46
2018-12-09T14:46:41.672Z,78.70
2018-12-09T14:49:11.502Z,78.94
2018-12-09T14:51:42.992Z,80.23
2018-12-09T14:54:12.770Z,80.11
2018-12-09T14:56:43.454Z,80.51
2018-12-09T14:59:13.121Z,80.56
2018-12-09T15:01:42.825Z,80.34
2018-12-09T15:04:12.509Z,81.44
2018-12-09T15:06:42.224Z,81.56
2018-12-09T15:09:12.065Z,81.63
2018-12-09T15:11:41.712Z,80.97
2018-12-09T15:14:11.672Z,80.90
2018-12-09T15:16:41.816Z,80.71
2018-12-09T15:19:11.667Z,80.75
2018-12-09T15:21:41.317Z,81.65
2018-12-09T15:24:10.997Z,81.46
2018-12-09T15:26:40.757Z,81.37
2018-12-09T15:29:10.413Z,81.00
2018-12-09T15:31:40.169Z,81.39
2018-12-09T15:34:09.917Z,81.26
2018-12-09T15:36:39.750Z,80.79
2018-12-09T15:39:09.405Z,82.34
2018-12-09T15:41:40.077Z,81.70
2018-12-09T15:44:09.951Z,81.52
2018-12-09T15:46:39.636Z,81.76
2018-12-09T15:49:10.276Z,81.68
2018-12-09T15:51:40.047Z,81.49
2018-12-09T15:54:10.161Z,80.76
2018-12-09T15:56:40.147Z,80.93
2018-12-09T15:59:09.812Z,81.50
2018-12-09T16:01:39.457Z,81.79
2018-12-09T16:04:09.197Z,82.91
2018-12-09T16:06:38.913Z,83.91
2018-12-09T16:09:08.845Z,86.94
2018-12-09T16:11:38.551Z,88.70
2018-12-09T16:14:09.201Z,88.63
2018-12-09T16:16:38.995Z,90.03
2018-12-09T16:19:08.879Z,90.80
2018-12-09T16:21:38.592Z,91.47
2018-12-09T16:24:08.252Z,91.36
2018-12-09T16:26:37.928Z,91.00
2018-12-09T16:29:07.809Z,90.95
2018-12-09T16:31:37.665Z,91.59
2018-12-09T16:34:07.397Z,91.57
2018-12-09T16:36:37.070Z,92.11
2018-12-09T16:39:07.505Z,92.55
2018-12-09T16:41:37.508Z,92.09
2018-12-09T16:44:07.313Z,92.06
2018-12-09T16:46:37.089Z,91.75
2018-12-09T16:49:06.772Z,92.02
2018-12-09T16:51:36.573Z,92.38
2018-12-09T16:54:06.353Z,92.67
2018-12-09T16:56:38.003Z,93.23
2018-12-09T16:59:07.871Z,94.45
2018-12-09T17:01:37.781Z,94.46
2018-12-09T17:04:08.077Z,94.58
2018-12-09T17:06:38.012Z,94.43
2018-12-09T17:09:07.749Z,95.01
2018-12-09T17:11:39.494Z,94.87
2018-12-09T17:14:09.294Z,94.57
2018-12-09T17:16:39.053Z,94.88
2018-12-09T17:19:08.943Z,94.19
2018-12-09T17:21:38.732Z,94.05
2018-12-09T17:24:08.455Z,94.30
2018-12-09T17:26:38.181Z,94.47
2018-12-09T17:29:08.024Z,94.69
2018-12-09T17:31:37.800Z,94.77
2018-12-09T17:34:07.692Z,95.58
2018-12-09T17:36:37.456Z,95.25
2018-12-09T17:39:07.415Z,96.17
2018-12-09T17:41:38.189Z,95.74
2018-12-09T17:44:07.896Z,94.91
2018-12-09T17:46:37.677Z,94.62
2018-12-09T17:49:07.702Z,94.53
2018-12-09T17:51:37.469Z,94.74
2018-12-09T17:54:07.220Z,94.65
2018-12-09T17:56:36.947Z,94.47
2018-12-09T17:59:06.813Z,94.65
2018-12-09T18:01:36.656Z,94.74
2018-12-09T18:04:06.763Z,95.47
2018-12-09T18:06:36.498Z,94.89
2018-12-09T18:09:06.857Z,95.68
2018-12-09T18:11:37.658Z,95.11
2018-12-09T18:14:07.479Z,94.73
2018-12-09T18:16:37.145Z,95.21
2018-12-09T18:19:07.205Z,94.65
2018-12-09T18:21:37.033Z,94.91
2018-12-09T18:24:06.795Z,95.79
2018-12-09T18:26:36.600Z,95.10
2018-12-09T18:29:06.535Z,95.76
2018-12-09T18:31:36.421Z,95.73
2018-12-09T18:34:06.228Z,96.01
2018-12-09T18:36:36.549Z,96.57
2018-12-09T18:39:06.749Z,96.42
2018-12-09T18:41:36.454Z,96.18
2018-12-09T18:44:06.212Z,96.04
2018-12-09T18:46:36.000Z,95.44
2018-12-09T18:49:05.763Z,95.33
2018-12-09T18:51:35.783Z,95.23
2018-12-09T18:54:06.366Z,94.43
2018-12-09T18:56:36.232Z,93.54
2018-12-09T18:59:06.618Z,93.40
2018-12-09T19:01:36.469Z,93.34
2018-12-09T19:04:07.001Z,93.09
2018-12-09T19:06:40.220Z,91.96
2018-12-09T19:09:17.278Z,92.08
2018-12-09T19:11:48.933Z,91.77
2018-12-09T19:14:18.767Z,91.66
2018-12-09T19:16:49.573Z,90.97
2018-12-09T19:19:19.358Z,91.07
2018-12-09T19:21:49.121Z,90.75
2018-12-09T19:24:19.040Z,91.06
2018-12-09T19:26:49.280Z,91.28
2018-12-09T19:29:19.073Z,90.25
2018-12-09T19:31:51.347Z,89.34
2018-12-09T19:34:21.137Z,88.50
2018-12-09T19:36:50.976Z,87.57
2018-12-09T19:39:21.933Z,87.78
2018-12-09T19:41:52.370Z,87.99
2018-12-09T19:44:22.228Z,87.00
2018-12-09T19:46:52.326Z,87.39
2018-12-09T19:49:22.272Z,87.03
2018-12-09T19:51:52.030Z,86.39
2018-12-09T19:54:21.918Z,87.38
2018-12-09T19:56:51.872Z,87.12
2018-12-09T19:59:21.769Z,87.68
2018-12-09T20:01:51.588Z,86.83
2018-12-09T20:04:21.451Z,86.90
2018-12-09T20:06:51.429Z,86.69
2018-12-09T20:09:21.229Z,87.23
2018-12-09T20:11:50.961Z,86.58
2018-12-09T20:14:20.958Z,86.55
2018-12-09T20:16:50.612Z,86.73
2018-12-09T20:19:20.261Z,86.70
2018-12-09T20:21:49.981Z,86.55
2018-12-09T20:24:19.665Z,86.75
2018-12-09T20:26:49.378Z,86.81
2018-12-09T20:29:19.115Z,87.33
2018-12-09T20:31:48.822Z,86.92
2018-12-09T20:34:18.493Z,86.73
2018-12-09T20:36:48.159Z,87.07
2018-12-09T20:39:17.925Z,86.12
2018-12-09T20:41:47.691Z,86.44
2018-12-09T20:44:17.562Z,86.15
2018-12-09T20:46:47.222Z,86.72
2018-12-09T20:49:16.928Z,86.93
2018-12-09T20:51:46.604Z,85.62
2018-12-09T20:54:16.381Z,85.63
2018-12-09T20:56:46.139Z,86.25
2018-12-09T20:59:15.920Z,85.83
2018-12-09T21:01:45.629Z,86.22
2018-12-09T21:04:15.343Z,84.94
2018-12-09T21:06:45.174Z,84.28
2018-12-09T21:09:14.929Z,83.90
2018-12-09T21:11:44.896Z,82.30
2018-12-09T21:14:14.616Z,81.70
2018-12-09T21:16:44.276Z,82.81
2018-12-09T21:19:13.989Z,81.53
2018-12-09T21:21:43.869Z,82.58
2018-12-09T21:24:13.520Z,81.54
2018-12-09T21:26:43.268Z,81.09
2018-12-09T21:29:13.169Z,81.71
2018-12-09T21:31:42.870Z,81.09
2018-12-09T21:34:12.633Z,81.46
2018-12-09T21:36:42.357Z,81.93
2018-12-09T21:39:12.428Z,80.55
2018-12-09T21:41:42.240Z,80.71
2018-12-09T21:44:11.949Z,81.89
2018-12-09T21:46:41.781Z,82.23
2018-12-09T21:49:11.790Z,82.40
2018-12-09T21:51:42.077Z,81.76
2018-12-09T21:54:11.808Z,82.58
2018-12-09T21:56:42.700Z,82.43
2018-12-09T21:59:12.595Z,82.97
2018-12-09T22:01:42.292Z,82.46
2018-12-09T22:04:11.981Z,82.92
2018-12-09T22:06:41.708Z,83.65
2018-12-09T22:09:11.497Z,84.03
2018-12-09T22:11:41.441Z,83.80
2018-12-09T22:14:12.350Z,83.73
2018-12-09T22:16:42.153Z,83.03
2018-12-09T22:19:11.905Z,83.65
2018-12-09T22:21:41.709Z,84.14
2018-12-09T22:24:11.460Z,83.50
2018-12-09T22:26:41.225Z,84.90
2018-12-09T22:29:10.965Z,85.03
2018-12-09T22:31:41.098Z,84.67
2018-12-09T22:34:10.906Z,85.53
2018-12-09T22:36:40.681Z,85.61
2018-12-09T22:39:10.489Z,85.43
2018-12-09T22:41:40.202Z,85.75
2018-12-09T22:44:09.853Z,85.14
2018-12-09T22:46:39.609Z,85.91
2018-12-09T22:49:09.404Z,85.46
2018-12-09T22:51:39.117Z,85.43
2018-12-09T22:54:08.875Z,85.78
2018-12-09T22:56:38.527Z,85.16
2018-12-09T22:59:08.303Z,85.25
2018-12-09T23:01:40.053Z,84.87
2018-12-09T23:04:09.757Z,84.45
2018-12-09T23:06:39.465Z,84.54
2018-12-09T23:09:09.274Z,84.12
2018-12-09T23:11:40.990Z,83.79
2018-12-09T23:14:10.777Z,85.20
2018-12-09T23:16:40.629Z,83.67
2018-12-09T23:19:10.337Z,84.51
2018-12-09T23:21:40.005Z,82.71
2018-12-09T23:24:09.703Z,83.30
2018-12-09T23:26:39.409Z,82.99
2018-12-09T23:29:09.116Z,83.40
2018-12-09T23:31:38.829Z,83.04
2018-12-09T23:34:08.475Z,83.00
2018-12-09T23:36:38.343Z,82.30
2018-12-09T23:39:07.993Z,81.90
2018-12-09T23:41:37.755Z,83.39
2018-12-09T23:44:07.512Z,82.74
2018-12-09T23:46:37.285Z,82.89
2018-12-09T23:49:06.981Z,81.89
2018-12-09T23:51:36.716Z,82.48
2018-12-09T23:54:06.368Z,81.39
2018-12-09T23:56:36.028Z,82.12
2018-12-09T23:59:05.680Z,81.89
